Time;durP1;ratioP1;P1;durP2;ratioP2;P2;SDS_P1;SDS_P2;PMS_P1;PMS_P2;Temp;Humidity;BMP_temperature;BMP_pressure;BME280_temperature;BME280_humidity;BME280_pressure;Samples;Min_cycle;Max_cycle;Signal;HPM_P1;HPM_P2
2022/08/10 00:01:52;;;;;;;5.63;2.78;;;;;;;28.06;40.85;101182.19;5074078;28;20119;-74
2022/08/10 00:04:22;;;;;;;2.50;2.30;;;;;;;27.94;39.33;101183.31;5073949;28;20403;-73
2022/08/10 00:06:52;;;;;;;2.40;2.22;;;;;;;28.22;38.98;101202.50;5074075;28;20048;-74
2022/08/10 00:09:21;;;;;;;3.55;2.20;;;;;;;28.27;38.10;101195.69;5073647;28;20071;-74
2022/08/10 00:11:50;;;;;;;2.33;2.20;;;;;;;28.43;39.19;101204.69;5073971;28;20075;-74
2022/08/10 00:14:18;;;;;;;2.20;2.05;;;;;;;28.58;37.07;101185.09;5086950;28;20049;-74
2022/08/10 00:16:47;;;;;;;2.22;1.95;;;;;;;28.45;37.13;101190.22;5073638;28;20041;-73
2022/08/10 00:19:15;;;;;;;2.58;1.92;;;;;;;28.47;35.77;101190.63;5073822;28;20395;-73
2022/08/10 00:21:45;;;;;;;1.90;1.80;;;;;;;28.50;35.97;101189.06;5073288;28;20053;-73
2022/08/10 00:24:14;;;;;;;1.70;1.60;;;;;;;28.61;35.71;101187.13;5073222;28;20041;-74
2022/08/10 00:26:42;;;;;;;2.03;1.80;;;;;;;28.57;35.78;101197.56;5073339;28;20052;-74
2022/08/10 00:29:30;;;;;;;1.95;1.85;;;;;;;28.43;35.08;101186.97;5073711;28;20497;-73
2022/08/10 00:31:59;;;;;;;1.92;1.83;;;;;;;28.54;35.48;101181.47;5069362;28;20052;-74
2022/08/10 00:34:29;;;;;;;1.90;1.70;;;;;;;28.59;35.58;101181.06;5073735;28;20501;-73
2022/08/10 00:36:59;;;;;;;1.45;1.35;;;;;;;28.48;34.82;101192.25;5065617;28;20055;-73
2022/08/10 00:39:29;;;;;;;3.33;2.05;;;;;;;28.54;35.11;101187.09;5073361;28;20045;-73
2022/08/10 00:42:07;;;;;;;1.70;1.60;;;;;;;28.49;35.46;101193.88;5072425;28;20051;-74
2022/08/10 00:44:41;;;;;;;4.00;1.73;;;;;;;28.48;34.26;101188.66;5073337;28;20151;-74
2022/08/10 00:47:10;;;;;;;2.30;2.08;;;;;;;28.47;34.30;101190.63;5072945;28;20048;-73
2022/08/10 00:49:58;;;;;;;1.83;1.73;;;;;;;28.48;34.11;101183.81;5072624;28;20048;-74
2022/08/10 00:52:29;;;;;;;1.33;1.23;;;;;;;28.41;34.20;101197.81;5072129;28;20806;-73
2022/08/10 00:54:58;;;;;;;2.65;1.55;;;;;;;28.36;34.04;101207.44;5072768;28;20063;-73
2022/08/10 00:57:26;;;;;;;1.67;1.58;;;;;;;28.46;33.44;101196.66;5065347;28;20048;-74
2022/08/10 00:59:54;;;;;;;3.42;1.45;;;;;;;28.37;33.64;101203.44;5072460;28;20045;-73
2022/08/10 01:02:29;;;;;;;2.58;1.83;;;;;;;28.44;33.09;101202.66;5072291;28;20103;-73
2022/08/10 01:04:59;;;;;;;1.50;1.40;;;;;;;28.53;33.19;101213.59;5072530;28;20155;-73
2022/08/10 01:07:44;;;;;;;1.55;1.45;;;;;;;28.44;33.51;101205.47;5072935;28;20453;-74
2022/08/10 01:10:32;;;;;;;1.73;1.58;;;;;;;28.38;32.83;101196.59;5072245;28;20388;-73
2022/08/10 01:13:00;;;;;;;2.95;1.50;;;;;;;28.45;33.74;101193.03;5069626;28;20383;-73
2022/08/10 01:15:32;;;;;;;1.40;1.30;;;;;;;28.44;32.92;101192.22;5072042;28;20394;-73
2022/08/10 01:18:16;;;;;;;1.65;1.55;;;;;;;28.41;32.80;101186.56;5072548;28;20048;-73
2022/08/10 01:21:20;;;;;;;2.15;1.70;;;;;;;28.35;32.17;101186.09;5069522;28;20057;-73
2022/08/10 01:24:03;;;;;;;2.85;1.52;;;;;;;28.30;32.69;101173.22;5067679;28;20430;-73
2022/08/10 01:27:03;;;;;;;1.30;1.20;;;;;;;28.37;32.98;101172.47;5064781;28;20394;-73
2022/08/10 01:29:56;;;;;;;1.88;1.77;;;;;;;28.39;32.11;101172.88;5072492;28;20048;-73
2022/08/10 01:32:36;;;;;;;1.65;1.55;;;;;;;28.37;32.37;101171.66;5063924;28;20068;-73
2022/08/10 01:35:34;;;;;;;2.22;1.45;;;;;;;28.20;32.79;101178.72;5072296;28;20036;-73
2022/08/10 01:38:13;;;;;;;1.63;1.02;;;;;;;28.36;34.24;101179.31;5073469;28;20409;-73
2022/08/10 01:41:10;;;;;;;1.75;1.45;;;;;;;28.19;33.40;101185.53;5065357;28;20044;-73
2022/08/10 01:43:42;;;;;;;1.50;1.40;;;;;;;28.26;32.52;101165.94;5070482;28;20044;-74
2022/08/10 01:46:14;;;;;;;2.38;1.80;;;;;;;28.23;32.44;101156.28;5072015;28;20053;-73
2022/08/10 01:48:47;;;;;;;1.85;1.45;;;;;;;28.20;32.74;101167.47;5071668;28;20056;-73
2022/08/10 01:51:26;;;;;;;3.17;1.65;;;;;;;28.06;33.53;101166.16;5072237;28;20053;-73
2022/08/10 01:54:11;;;;;;;1.55;1.45;;;;;;;28.11;33.57;101171.41;5071954;28;20070;-73
2022/08/10 01:56:44;;;;;;;2.08;1.60;;;;;;;28.03;33.14;101162.09;5071035;28;20049;-73
2022/08/10 01:59:20;;;;;;;1.65;1.55;;;;;;;28.07;32.76;101173.38;5067242;28;20047;-72
2022/08/10 02:01:54;;;;;;;2.38;1.60;;;;;;;28.00;33.23;101171.31;5071922;28;20037;-74
2022/08/10 02:04:24;;;;;;;1.45;1.35;;;;;;;27.99;33.40;101172.50;5070349;28;20051;-73
2022/08/10 02:06:54;;;;;;;1.77;1.65;;;;;;;28.13;33.42;101171.00;5071819;28;20048;-73
2022/08/10 02:09:35;;;;;;;3.03;1.45;;;;;;;28.05;33.15;101172.94;5071493;28;20047;-74
2022/08/10 02:12:07;;;;;;;4.60;1.90;;;;;;;28.10;33.33;101172.59;5066096;28;20052;-73
2022/08/10 02:14:41;;;;;;;1.52;1.42;;;;;;;28.08;33.77;101175.00;5072037;28;20048;-74
2022/08/10 02:17:18;;;;;;;1.75;1.65;;;;;;;28.09;33.20;101178.63;5072081;28;20056;-74
2022/08/10 02:20:17;;;;;;;1.98;1.75;;;;;;;28.02;33.96;101177.34;5072118;28;20060;-73
2022/08/10 02:22:52;;;;;;;4.97;1.70;;;;;;;27.91;34.16;101168.00;5052603;28;20045;-73
2022/08/10 02:25:21;;;;;;;3.47;1.40;;;;;;;27.96;33.05;101169.66;5051930;28;20049;-73
2022/08/10 02:28:15;;;;;;;1.40;1.30;;;;;;;28.08;32.79;101171.38;5062079;28;20041;-73
2022/08/10 02:31:19;;;;;;;2.30;1.35;;;;;;;27.94;32.86;101177.69;5051364;28;20471;-74
2022/08/10 02:33:53;;;;;;;2.38;1.65;;;;;;;28.05;33.35;101178.56;5059640;28;20060;-74
2022/08/10 02:36:31;;;;;;;1.88;1.50;;;;;;;28.01;33.96;101166.50;5056886;28;20399;-74
2022/08/10 02:39:03;;;;;;;2.63;1.80;;;;;;;27.91;33.74;101165.19;5059205;28;20045;-75
2022/08/10 02:41:38;;;;;;;1.58;1.48;;;;;;;27.80;33.46;101156.63;5056889;28;20052;-75
2022/08/10 02:44:41;;;;;;;2.13;1.80;;;;;;;28.00;34.10;101162.06;5052079;28;20044;-74
2022/08/10 02:47:34;;;;;;;1.70;1.60;;;;;;;27.94;33.44;101160.81;5052098;28;20049;-74
2022/08/10 02:50:27;;;;;;;4.50;1.60;;;;;;;27.88;33.84;101152.72;5051841;28;20060;-75
2022/08/10 02:53:04;;;;;;;1.88;1.30;;;;;;;27.82;33.80;101148.63;5051830;28;20057;-74
2022/08/10 02:55:49;;;;;;;1.38;1.23;;;;;;;27.75;33.44;101145.72;5051810;28;20037;-74
2022/08/10 02:58:27;;;;;;;3.65;1.60;;;;;;;27.65;33.89;101143.63;5051704;28;20387;-74
2022/08/10 03:00:58;;;;;;;2.75;1.67;;;;;;;27.64;34.25;101145.63;5051754;28;20041;-74
2022/08/10 03:03:30;;;;;;;1.70;1.42;;;;;;;27.62;33.58;101146.00;5051713;28;20052;-74
2022/08/10 03:06:24;;;;;;;2.25;1.63;;;;;;;27.71;34.51;101148.50;5053499;28;20037;-74
2022/08/10 03:08:55;;;;;;;1.63;1.52;;;;;;;27.76;34.04;101144.56;5049981;28;20060;-74
2022/08/10 03:11:28;;;;;;;2.35;1.42;;;;;;;27.60;34.08;101147.56;5052191;28;20049;-74
2022/08/10 03:14:17;;;;;;;1.60;1.50;;;;;;;27.73;34.25;101145.31;5055467;28;20055;-75
2022/08/10 03:16:46;;;;;;;1.70;1.60;;;;;;;27.75;34.31;101151.34;5055350;28;20048;-74
2022/08/10 03:19:16;;;;;;;2.13;1.40;;;;;;;27.55;34.30;101150.69;5056888;28;20052;-75
2022/08/10 03:22:05;;;;;;;1.80;1.67;;;;;;;27.67;34.19;101144.03;5055501;28;20057;-74
2022/08/10 03:24:34;;;;;;;1.95;1.60;;;;;;;27.48;33.99;101146.63;5055061;28;20057;-74
2022/08/10 03:27:03;;;;;;;2.67;1.60;;;;;;;27.67;34.06;101144.88;5055421;28;20395;-75
2022/08/10 03:29:32;;;;;;;3.20;1.77;;;;;;;27.60;33.93;101139.97;5055000;28;20044;-74
2022/08/10 03:32:24;;;;;;;3.22;1.60;;;;;;;27.77;34.32;101155.41;5055042;28;20057;-74
2022/08/10 03:34:52;;;;;;;2.38;1.38;;;;;;;27.67;33.85;101149.66;5071277;28;20045;-74
2022/08/10 03:37:20;;;;;;;1.75;1.63;;;;;;;27.72;34.44;101149.31;5075152;28;20048;-74
2022/08/10 03:39:49;;;;;;;2.90;1.50;;;;;;;27.65;34.15;101149.25;5075151;28;20036;-74
2022/08/10 03:42:21;;;;;;;1.50;1.13;;;;;;;27.70;34.53;101157.34;5073992;28;20037;-75
2022/08/10 03:44:51;;;;;;;1.65;1.42;;;;;;;27.68;34.67;101162.53;5074972;28;20040;-74
2022/08/10 03:47:22;;;;;;;5.30;1.60;;;;;;;27.62;34.37;101157.25;5075033;28;20052;-75
2022/08/10 03:49:50;;;;;;;1.83;1.63;;;;;;;27.55;33.75;101151.53;5074969;28;20060;-74
2022/08/10 03:52:19;;;;;;;1.73;1.35;;;;;;;27.62;33.73;101157.25;5074657;28;20045;-74
2022/08/10 03:54:50;;;;;;;1.70;1.60;;;;;;;27.78;33.34;101159.03;5074813;28;20053;-74
2022/08/10 03:57:20;;;;;;;3.58;1.33;;;;;;;27.72;34.81;101167.00;5074504;28;20060;-74
2022/08/10 03:59:49;;;;;;;1.70;1.60;;;;;;;27.76;33.27;101158.63;5074779;28;20048;-74
2022/08/10 04:02:18;;;;;;;2.03;1.77;;;;;;;27.74;33.71;101155.38;5074590;28;20055;-74
2022/08/10 04:05:06;;;;;;;3.10;1.20;;;;;;;27.90;33.70;101153.13;5074553;28;20063;-75
2022/08/10 04:07:35;;;;;;;1.77;1.58;;;;;;;27.77;34.07;101151.78;5074108;28;20494;-74
2022/08/10 04:10:03;;;;;;;2.08;1.55;;;;;;;27.78;33.62;101159.03;5074549;28;20052;-74
2022/08/10 04:12:31;;;;;;;1.75;1.30;;;;;;;27.66;34.03;101148.84;5074314;28;20072;-74
2022/08/10 04:14:59;;;;;;;2.58;1.50;;;;;;;27.79;33.85;101159.81;5074348;28;20048;-75
2022/08/10 04:17:27;;;;;;;1.90;1.42;;;;;;;27.61;34.27;101149.22;5074231;28;20487;-74
2022/08/10 04:20:17;;;;;;;4.15;1.85;;;;;;;27.98;33.48;101158.81;5074398;28;20398;-74
2022/08/10 04:22:50;;;;;;;1.95;1.30;;;;;;;27.84;33.49;101168.72;5073741;28;20051;-75
2022/08/10 04:25:21;;;;;;;1.50;1.40;;;;;;;27.73;34.48;101157.38;5074443;28;20402;-74
2022/08/10 04:27:49;;;;;;;2.03;1.60;;;;;;;27.79;34.34;101159.81;5074221;28;20049;-75
2022/08/10 04:30:18;;;;;;;2.95;1.73;;;;;;;28.17;34.86;101167.06;5074613;28;20041;-81
2022/08/10 04:32:51;;;;;;;2.03;1.67;;;;;;;28.44;33.82;101160.44;5068990;28;20476;-81
2022/08/10 04:35:21;;;;;;;1.45;1.35;;;;;;;28.56;34.15;101162.16;5060677;28;20052;-81
2022/08/10 04:37:51;;;;;;;2.58;1.73;;;;;;;28.63;33.92;101164.22;5074167;28;20060;-81
2022/08/10 04:40:19;;;;;;;1.88;1.63;;;;;;;28.51;33.37;101163.34;5073772;28;20052;-81
2022/08/10 04:42:59;;;;;;;3.83;1.45;;;;;;;28.65;33.31;101171.09;5073979;28;20060;-81
2022/08/10 04:45:34;;;;;;;1.85;1.73;;;;;;;28.74;33.97;101176.34;5073747;28;20056;-81
2022/08/10 04:48:21;;;;;;;3.60;2.03;;;;;;;28.78;33.78;101163.09;5073809;28;20052;-80
2022/08/10 04:51:12;;;;;;;1.80;1.70;;;;;;;29.06;33.87;101172.97;5074159;28;20052;-81
2022/08/10 04:53:47;;;;;;;3.80;1.80;;;;;;;28.80;34.10;101173.97;5073760;28;20048;-81
2022/08/10 04:56:36;;;;;;;2.67;1.80;;;;;;;28.95;34.28;101178.56;5073961;28;20390;-81
2022/08/10 04:59:06;;;;;;;2.80;1.50;;;;;;;28.65;34.19;101184.34;5073977;28;20037;-81
2022/08/10 05:01:36;;;;;;;1.67;1.52;;;;;;;28.79;34.05;101189.28;5073775;28;20037;-81
2022/08/10 05:04:24;;;;;;;1.50;1.40;;;;;;;28.90;34.12;101187.38;5073599;28;20056;-82
2022/08/10 05:07:10;;;;;;;1.77;1.60;;;;;;;28.87;34.42;101195.78;5073832;28;20047;-82
2022/08/10 05:09:48;;;;;;;2.00;1.73;;;;;;;28.64;34.23;101191.97;5073325;28;20055;-82
2022/08/10 05:12:36;;;;;;;2.22;1.63;;;;;;;28.86;33.66;101197.78;5072850;28;20068;-82
2022/08/10 05:15:11;;;;;;;1.70;1.60;;;;;;;28.86;33.58;101197.78;5065486;28;20483;-80
2022/08/10 05:17:41;;;;;;;2.30;1.60;;;;;;;28.93;33.77;101200.66;5073132;28;20048;-82
2022/08/10 05:20:28;;;;;;;4.00;1.70;;;;;;;28.76;33.66;101198.50;5073383;28;20410;-82
2022/08/10 05:23:06;;;;;;;1.50;1.30;;;;;;;29.06;33.73;101201.13;5070142;28;20059;-81
2022/08/10 05:25:44;;;;;;;1.85;1.50;;;;;;;28.81;33.77;101198.13;5072892;28;20490;-82
2022/08/10 05:28:12;;;;;;;1.63;1.50;;;;;;;28.79;33.64;101195.69;5073442;28;20441;-82
2022/08/10 05:30:40;;;;;;;3.00;1.48;;;;;;;29.08;33.94;101198.72;5073272;28;20049;-81
2022/08/10 05:33:08;;;;;;;1.90;1.70;;;;;;;28.99;33.77;101197.47;5054500;28;20057;-82
2022/08/10 05:35:37;;;;;;;2.08;1.60;;;;;;;29.02;34.16;101196.69;5088682;28;20052;-82
2022/08/10 05:38:26;;;;;;;2.78;1.70;;;;;;;29.04;34.00;101186.66;5072816;28;20047;-82
2022/08/10 05:40:56;;;;;;;4.70;1.88;;;;;;;29.01;33.70;101195.88;5073025;28;20478;-82
2022/08/10 05:43:24;;;;;;;1.83;1.73;;;;;;;29.05;33.98;101187.44;5072736;28;20372;-82
2022/08/10 05:45:52;;;;;;;2.53;1.70;;;;;;;29.02;34.27;101199.50;5073039;28;20498;-82
2022/08/10 05:48:41;;;;;;;2.58;1.77;;;;;;;28.96;33.85;101208.31;5072036;28;20056;-82
2022/08/10 05:51:29;;;;;;;3.20;2.05;;;;;;;29.09;34.78;101199.53;5072746;28;20487;-82
2022/08/10 05:53:59;;;;;;;5.45;1.90;;;;;;;29.29;34.30;101207.69;5072286;28;20379;-82
2022/08/10 05:56:39;;;;;;;2.38;1.60;;;;;;;29.23;34.17;101202.44;5070883;28;20063;-82
2022/08/10 05:59:27;;;;;;;2.03;1.92;;;;;;;29.19;34.28;101204.44;5076512;28;20041;-82
2022/08/10 06:02:40;;;;;;;3.03;1.88;;;;;;;29.26;34.10;101208.50;5068714;28;20048;-82
2022/08/10 06:05:14;;;;;;;4.28;2.20;;;;;;;29.52;33.59;101198.97;5072012;28;20049;-82
2022/08/10 06:07:45;;;;;;;;;;;;;;;29.75;33.52;101200.66;5058778;28;20041;-82
2022/08/10 06:10:14;;;;;;;4.88;1.52;;;;;;;29.73;33.42;101208.69;5058276;28;20379;-82
2022/08/10 06:16:06;;;;;;;3.83;1.25;;;;;;;29.50;33.06;101205.00;5082317;28;20045;-83
2022/08/10 06:18:35;;;;;;;2.13;1.63;;;;;;;29.66;33.15;101203.84;5042901;28;20045;-83
2022/08/10 06:21:04;;;;;;;2.20;1.65;;;;;;;29.88;31.96;101209.53;5069132;28;20040;-83
2022/08/10 06:23:34;;;;;;;1.80;1.55;;;;;;;29.94;32.35;101212.78;5071271;28;20052;-81
2022/08/10 06:26:04;;;;;;;1.73;1.60;;;;;;;29.88;31.94;101207.53;5070485;28;20040;-82
2022/08/10 06:28:44;;;;;;;4.13;1.65;;;;;;;29.98;31.45;101213.59;5071028;28;20036;-82
2022/08/10 06:31:37;;;;;;;3.42;1.60;;;;;;;29.65;31.14;101219.16;5068843;28;20060;-81
2022/08/10 06:34:29;;;;;;;4.63;1.92;;;;;;;29.63;31.91;101208.25;5063177;28;20045;-82
2022/08/10 06:37:01;;;;;;;1.88;1.27;;;;;;;29.78;31.71;101211.94;5071539;28;20048;-82
2022/08/10 06:39:30;;;;;;;1.45;1.35;;;;;;;29.64;31.90;101209.06;5070718;28;20047;-83
2022/08/10 06:42:34;;;;;;;1.70;1.60;;;;;;;29.52;31.52;101213.06;5071795;28;20414;-82
2022/08/10 06:45:07;;;;;;;2.75;1.48;;;;;;;29.77;32.12;101207.50;5069125;28;20406;-83
2022/08/10 06:48:05;;;;;;;1.20;1.17;;;;;;;29.83;31.44;101218.41;5070947;28;20049;-82
2022/08/10 06:50:44;;;;;;;2.97;1.80;;;;;;;30.01;31.54;101215.63;5042075;28;20056;-82
2022/08/10 06:53:31;;;;;;;4.47;1.60;;;;;;;29.84;31.14;101220.00;5061003;28;20044;-81
2022/08/10 06:56:27;;;;;;;1.63;1.48;;;;;;;29.84;31.00;101225.66;5055745;28;20056;-82
2022/08/10 06:59:15;;;;;;;1.77;1.67;;;;;;;29.89;30.73;101219.63;5060663;28;20044;-82
2022/08/10 07:02:12;;;;;;;2.03;1.40;;;;;;;29.95;30.29;101226.47;5058299;28;20044;-82
2022/08/10 07:04:53;;;;;;;1.38;1.27;;;;;;;29.85;30.15;101227.25;5050794;28;20052;-82
2022/08/10 07:07:24;;;;;;;3.85;1.42;;;;;;;29.86;30.38;101220.44;5063658;28;20487;-81
2022/08/10 07:09:54;;;;;;;4.82;1.83;;;;;;;29.99;30.57;101218.03;5060143;28;20048;-82
2022/08/10 07:12:24;;;;;;;3.05;1.73;;;;;;;30.11;29.95;101228.97;5051562;28;20071;-81
2022/08/10 07:14:54;;;;;;;2.05;1.10;;;;;;;30.01;30.05;101233.34;5053822;28;20041;-80
2022/08/10 07:17:24;;;;;;;2.85;1.00;;;;;;;30.13;28.67;101240.69;5053199;28;20060;-80
2022/08/10 07:19:58;;;;;;;2.85;1.20;;;;;;;29.99;28.93;101230.13;5053210;28;20037;-80
2022/08/10 07:22:30;;;;;;;1.50;1.40;;;;;;;30.02;29.25;101237.00;5050537;28;20037;-81
2022/08/10 07:25:23;;;;;;;2.30;1.50;;;;;;;30.20;29.07;101241.91;5059667;28;20040;-79
2022/08/10 07:27:57;;;;;;;1.45;1.35;;;;;;;30.06;28.90;101239.81;5072926;28;20044;-82
2022/08/10 07:30:32;;;;;;;1.63;1.17;;;;;;;29.98;29.14;101234.16;5058624;28;20049;-81
2022/08/10 07:33:01;;;;;;;1.20;1.10;;;;;;;29.89;29.42;101236.53;5069112;28;20108;-81
2022/08/10 07:35:31;;;;;;;1.17;1.10;;;;;;;29.98;28.63;101239.00;5061142;28;20045;-82
2022/08/10 07:38:30;;;;;;;2.35;1.30;;;;;;;29.49;29.70;101234.41;5053214;28;20060;-81
2022/08/10 07:40:59;;;;;;;1.35;1.25;;;;;;;29.54;29.83;101249.31;5050890;28;20049;-81
2022/08/10 07:43:34;;;;;;;1.10;1.00;;;;;;;29.70;28.97;101237.69;5054299;28;20048;-81
2022/08/10 07:46:04;;;;;;;2.58;1.65;;;;;;;29.61;29.48;101240.88;5057919;28;20053;-81
2022/08/10 07:48:53;;;;;;;1.17;1.13;;;;;;;29.38;29.05;101245.59;5050530;28;20037;-82
2022/08/10 07:51:22;;;;;;;2.88;1.30;;;;;;;29.54;29.20;101247.31;5060421;28;20036;-81
2022/08/10 07:53:52;;;;;;;1.50;1.40;;;;;;;30.08;29.33;101246.69;5053399;28;20053;-81
2022/08/10 07:56:24;;;;;;;1.65;1.27;;;;;;;29.99;28.63;101238.59;5061294;28;20052;-81
2022/08/10 07:59:21;;;;;;;2.75;1.67;;;;;;;29.84;28.75;101243.41;5059980;28;20494;-81
2022/08/10 08:01:54;;;;;;;2.55;1.40;;;;;;;30.16;28.68;101239.84;5062784;28;20052;-82
2022/08/10 08:04:34;;;;;;;1.30;1.20;;;;;;;29.99;28.76;101229.31;5058060;28;20041;-82
2022/08/10 08:07:03;;;;;;;2.65;1.45;;;;;;;30.30;29.29;101235.47;5053267;28;20053;-82
2022/08/10 08:09:34;;;;;;;1.33;0.93;;;;;;;30.51;28.97;101240.31;5062798;28;20052;-82
2022/08/10 08:12:03;;;;;;;4.15;1.67;;;;;;;30.09;29.71;101233.38;5064021;28;20041;-82
2022/08/10 08:14:33;;;;;;;1.77;1.65;;;;;;;30.32;29.33;101238.69;5053229;28;20589;-82
2022/08/10 08:17:02;;;;;;;1.45;1.35;;;;;;;30.68;28.99;101243.53;5053874;28;20048;-83
2022/08/10 08:19:32;;;;;;;1.52;1.42;;;;;;;30.53;28.89;101237.06;5063251;28;20048;-82
2022/08/10 08:22:09;;;;;;;1.33;1.23;;;;;;;30.72;28.63;101238.72;5074294;28;20048;-83
2022/08/10 08:24:58;;;;;;;1.60;1.50;;;;;;;30.77;29.39;101237.50;5074420;28;20486;-83
2022/08/10 08:27:28;;;;;;;3.08;1.40;;;;;;;30.66;29.47;101241.13;5074209;28;20056;-83
2022/08/10 08:29:58;;;;;;;1.77;1.38;;;;;;;30.55;29.38;101240.31;5074138;28;20044;-83
2022/08/10 08:32:30;;;;;;;1.42;1.33;;;;;;;30.46;29.89;101235.06;5063605;28;20487;-82
2022/08/10 08:35:01;;;;;;;3.53;1.40;;;;;;;30.70;29.89;101233.47;5070062;28;20384;-82
2022/08/10 08:37:36;;;;;;;4.63;1.60;;;;;;;30.48;29.66;101232.63;5074312;28;20037;-82
2022/08/10 08:40:28;;;;;;;2.78;1.52;;;;;;;30.51;29.61;101226.19;5074060;28;20037;-82
2022/08/10 08:43:08;;;;;;;1.10;1.10;;;;;;;30.93;29.00;101240.69;5073696;28;20475;-83
2022/08/10 08:45:41;;;;;;;2.10;1.40;;;;;;;30.75;29.00;101235.09;5060647;28;20045;-82
2022/08/10 08:48:37;;;;;;;1.92;1.60;;;;;;;30.79;28.67;101235.88;5073477;28;20049;-81
2022/08/10 08:51:33;;;;;;;4.57;1.33;;;;;;;30.89;28.34;101227.81;5073732;28;20039;-82
2022/08/10 08:54:27;;;;;;;1.42;1.13;;;;;;;30.92;27.97;101221.31;5080639;28;20047;-82
2022/08/10 08:57:22;;;;;;;2.22;1.63;;;;;;;31.24;28.41;101223.28;5075558;28;20051;-82
2022/08/10 09:00:32;;;;;;;1.85;1.60;;;;;;;31.40;28.38;101225.69;5071960;28;20047;-82
2022/08/10 09:03:09;;;;;;;2.03;1.15;;;;;;;31.11;27.73;101223.72;5069585;28;20051;-82
2022/08/10 09:05:51;;;;;;;1.55;1.45;;;;;;;30.44;28.80;101224.16;5072535;28;20049;-82
2022/08/10 09:08:45;;;;;;;2.65;1.70;;;;;;;30.91;28.39;101231.03;5069870;28;20043;-82
2022/08/10 09:11:52;;;;;;;2.08;1.40;;;;;;;31.34;28.76;101224.50;5085428;28;20052;-82
2022/08/10 09:14:39;;;;;;;1.65;1.55;;;;;;;31.07;28.79;101231.41;5066937;28;20037;-88
2022/08/10 09:17:20;;;;;;;1.70;1.60;;;;;;;31.64;28.41;101232.47;5063386;28;20388;-70
2022/08/10 09:20:07;;;;;;;1.50;1.40;;;;;;;31.63;27.88;101228.00;5067712;28;20044;-72
2022/08/10 09:22:46;;;;;;;2.13;2.03;;;;;;;31.58;28.59;101208.66;5068555;28;20063;-72
2022/08/10 09:25:36;;;;;;;3.17;1.67;;;;;;;31.83;27.98;101219.00;5024771;28;20048;-62
2022/08/10 09:28:07;;;;;;;3.10;1.75;;;;;;;31.75;27.84;101225.91;5057963;28;20037;-61
2022/08/10 09:30:43;;;;;;;3.90;1.85;;;;;;;31.95;27.74;101222.63;5058223;28;20064;-60
2022/08/10 09:34:02;;;;;;;1.75;1.40;;;;;;;31.67;27.41;101222.34;5068072;28;20060;-59
2022/08/10 09:37:22;;;;;;;2.38;1.75;;;;;;;31.99;27.46;101223.38;5062136;28;20060;-60
2022/08/10 09:40:23;;;;;;;4.18;1.60;;;;;;;31.82;27.79;101217.41;5065976;28;20052;-60
2022/08/10 09:43:16;;;;;;;3.30;1.70;;;;;;;31.86;27.46;101223.88;5069206;28;20191;-82
2022/08/10 09:46:21;;;;;;;3.10;1.63;;;;;;;32.08;27.41;101212.41;5071765;28;20067;-82
2022/08/10 09:49:38;;;;;;;1.55;1.30;;;;;;;32.00;27.13;101208.00;5072007;28;20060;-81
2022/08/10 09:53:02;;;;;;;3.17;1.63;;;;;;;32.01;27.07;101206.81;5067646;28;20403;-81
2022/08/10 09:55:54;;;;;;;2.83;1.40;;;;;;;31.49;27.44;101200.59;5071104;28;20056;-82
2022/08/10 09:59:01;;;;;;;1.73;1.30;;;;;;;31.98;27.41;101202.78;5068542;28;20055;-82
2022/08/10 10:02:03;;;;;;;1.88;1.10;;;;;;;32.18;26.35;101196.56;5062480;28;20048;-83
2022/08/10 10:04:54;;;;;;;4.60;1.40;;;;;;;32.27;26.81;101202.56;5071238;28;20491;-82
2022/08/10 10:07:25;;;;;;;1.85;1.30;;;;;;;32.49;26.49;101195.97;5056227;28;20071;-82
2022/08/10 10:09:53;;;;;;;1.50;1.40;;;;;;;32.18;26.81;101193.75;5062789;28;20040;-82
2022/08/10 10:12:39;;;;;;;1.55;1.45;;;;;;;32.23;26.54;101198.16;5069939;28;20060;-82
2022/08/10 10:15:22;;;;;;;1.33;1.23;;;;;;;32.01;26.25;101201.16;5072259;28;20051;-83
2022/08/10 10:18:01;;;;;;;1.77;1.67;;;;;;;32.13;26.37;101197.81;5071043;28;20040;-83
2022/08/10 10:20:48;;;;;;;2.60;1.67;;;;;;;32.14;26.59;101204.28;5073906;28;20048;-80
2022/08/10 10:23:16;;;;;;;2.22;1.70;;;;;;;32.17;27.11;101198.59;5080229;28;20049;-83
2022/08/10 10:25:58;;;;;;;1.63;1.52;;;;;;;32.21;27.03;101197.75;5072155;28;20059;-83
2022/08/10 10:29:02;;;;;;;1.42;1.23;;;;;;;32.43;26.56;101192.75;5071737;28;20491;-83
2022/08/10 10:31:58;;;;;;;;;;;;;;;32.25;26.92;101181.56;5067986;28;20064;-82
2022/08/10 10:35:02;;;;;;;2.17;1.50;;;;;;;32.41;26.59;101184.66;5071939;28;19928;-83
2022/08/10 10:37:32;;;;;;;2.00;1.40;;;;;;;32.58;26.56;101184.94;5060734;28;20056;-83
2022/08/10 10:40:24;;;;;;;1.10;1.10;;;;;;;32.80;26.74;101176.22;5071991;28;20044;-82
2022/08/10 10:43:10;;;;;;;2.00;1.77;;;;;;;32.40;26.49;101168.91;5071162;28;20073;-83
2022/08/10 10:45:57;;;;;;;2.15;1.58;;;;;;;32.38;26.46;101162.84;5067170;28;20044;-82
2022/08/10 10:48:40;;;;;;;2.30;1.50;;;;;;;32.58;26.30;101170.75;5042274;28;20049;-83
2022/08/10 10:51:24;;;;;;;3.67;1.60;;;;;;;32.82;26.92;101162.44;5071703;28;20041;-82
2022/08/10 10:54:01;;;;;;;1.80;1.70;;;;;;;32.76;26.54;101158.44;5064040;28;20045;-83
2022/08/10 10:56:55;;;;;;;1.95;1.58;;;;;;;33.08;26.20;101168.66;5054081;28;20123;-82
2022/08/10 10:59:41;;;;;;;1.60;1.50;;;;;;;32.83;26.61;101159.19;5064042;28;20048;-82
2022/08/10 11:02:48;;;;;;;2.10;1.58;;;;;;;33.12;25.79;101141.06;5063122;28;20051;-82
2022/08/10 11:05:28;;;;;;;3.97;1.58;;;;;;;33.38;25.41;101147.22;5051210;28;20053;-82
2022/08/10 11:08:00;;;;;;;1.52;1.42;;;;;;;33.50;26.53;101135.31;5051775;28;20060;-82
2022/08/10 11:10:37;;;;;;;2.22;1.60;;;;;;;33.57;25.21;101137.25;5050573;28;20045;-82
2022/08/10 11:13:46;;;;;;;1.30;1.20;;;;;;;33.68;25.11;101142.78;5055758;28;20060;-82
2022/08/10 11:16:52;;;;;;;2.50;2.30;;;;;;;33.15;26.02;101133.72;5051679;28;20108;-82
2022/08/10 11:19:54;;;;;;;1.33;1.23;;;;;;;33.49;26.09;101124.38;5057117;28;20053;-82
2022/08/10 11:22:52;;;;;;;3.78;1.60;;;;;;;33.75;25.72;101128.47;5063802;28;20060;-82
2022/08/10 11:25:31;;;;;;;3.03;2.10;;;;;;;33.36;25.10;101138.31;5034936;28;20502;-83
2022/08/10 11:28:15;;;;;;;1.60;1.50;;;;;;;33.86;25.48;101131.13;5051540;28;20053;-83
2022/08/10 11:30:49;;;;;;;4.05;1.90;;;;;;;34.10;25.54;101124.72;5064053;28;20044;-82
2022/08/10 11:33:22;;;;;;;3.72;1.65;;;;;;;34.52;24.69;101122.34;5058403;28;20048;-82
2022/08/10 11:36:20;;;;;;;1.58;1.48;;;;;;;34.68;24.83;101129.34;5075726;28;20060;-83
2022/08/10 11:39:08;;;;;;;2.05;1.55;;;;;;;34.19;24.44;101113.59;5055409;28;20053;-83
2022/08/10 11:41:43;;;;;;;1.60;1.40;;;;;;;33.85;25.50;101123.03;5070745;28;21719;-83
2022/08/10 11:44:43;;;;;;;1.55;1.40;;;;;;;33.80;25.65;101124.34;5074945;28;20410;-83
2022/08/10 11:47:22;;;;;;;2.00;1.70;;;;;;;33.52;26.10;101117.84;5061739;28;20057;-83
2022/08/10 11:49:58;;;;;;;3.80;1.63;;;;;;;33.86;25.63;101114.09;5082157;28;20087;-83
2022/08/10 11:52:39;;;;;;;1.98;1.60;;;;;;;33.81;25.49;101110.97;5071475;28;20055;-83
2022/08/10 11:55:29;;;;;;;2.72;1.95;;;;;;;34.37;25.02;101106.78;5059589;28;20407;-84
2022/08/10 12:01:04;;;;;;;1.70;1.50;;;;;;;33.96;25.36;101106.63;5066319;28;20053;-83
2022/08/10 12:03:35;;;;;;;2.38;2.15;;;;;;;34.45;25.77;101114.72;5069474;28;20055;-83
2022/08/10 12:06:07;;;;;;;1.42;1.33;;;;;;;34.90;24.75;101100.50;5061652;28;20098;-83
2022/08/10 12:08:35;;;;;;;1.48;1.38;;;;;;;35.21;24.47;101106.78;5054143;28;20403;-83
2022/08/10 12:11:26;;;;;;;1.80;1.60;;;;;;;35.36;24.03;101083.69;5055573;28;20714;-83
2022/08/10 12:14:18;;;;;;;2.92;1.60;;;;;;;35.41;24.46;101091.69;5055516;28;20499;-83
2022/08/10 12:16:58;;;;;;;1.70;1.60;;;;;;;35.58;23.53;101100.25;5070161;28;20036;-83
2022/08/10 12:19:38;;;;;;;1.75;1.40;;;;;;;35.84;25.02;101095.59;5057008;28;20052;-83
2022/08/10 12:22:33;;;;;;;1.83;1.73;;;;;;;34.93;24.90;101085.41;5067064;28;20036;-83
2022/08/10 12:25:07;;;;;;;1.60;1.50;;;;;;;35.16;23.46;101093.06;5069499;28;20048;-84
2022/08/10 12:27:47;;;;;;;1.88;1.77;;;;;;;35.19;24.33;101086.50;5070084;28;20045;-84
2022/08/10 12:30:18;;;;;;;1.63;1.50;;;;;;;35.17;23.84;101079.63;5074295;28;20416;-84
2022/08/10 12:33:30;;;;;;;1.50;1.40;;;;;;;35.35;23.50;101070.72;5063339;28;20053;-83